Time;durP1;ratioP1;P1;durP2;ratioP2;P2;SDS_P1;SDS_P2;PMS_P1;PMS_P2;Temp;Humidity;BMP_temperature;BMP_pressure;BME280_temperature;BME280_humidity;BME280_pressure;Samples;Min_cycle;Max_cycle;Signal;HPM_P1;HPM_P2
2021/03/02 00:00:34;;;;;;;;;21.50;19.00;;;;;3.17;80.31;102882.25;3725452;38;20630;-59
2021/03/02 00:03:01;;;;;;;;;11.25;11.25;;;;;3.12;80.07;102879.81;3725185;37;20582;-59
2021/03/02 00:05:28;;;;;;;;;20.00;18.25;;;;;3.09;80.08;102879.12;3725365;37;20603;-57
2021/03/02 00:07:54;;;;;;;;;28.50;19.50;;;;;2.96;80.10;102877.09;3725455;37;20604;-57
2021/03/02 00:10:21;;;;;;;;;17.00;14.00;;;;;2.83;80.62;102885.78;3725534;37;20579;-58
2021/03/02 00:12:51;;;;;;;;;16.25;14.25;;;;;2.66;80.53;102854.53;3725304;37;20568;-58
2021/03/02 00:15:25;;;;;;;;;13.25;12.50;;;;;2.73;80.67;102868.47;3725378;37;20587;-58
2021/03/02 00:17:54;;;;;;;;;15.25;11.25;;;;;2.74;81.04;102867.53;3725136;38;20562;-58
2021/03/02 00:20:22;;;;;;;;;15.00;11.75;;;;;2.76;81.18;102861.16;3725382;38;20550;-58
2021/03/02 00:23:18;;;;;;;;;12.75;11.75;;;;;2.75;80.90;102862.09;3725346;37;20557;-58
2021/03/02 00:25:51;;;;;;;;;16.25;13.25;;;;;2.72;81.14;102859.59;3725449;37;20544;-58
2021/03/02 00:28:21;;;;;;;;;13.75;12.25;;;;;2.78;81.37;102850.37;3725091;37;20561;-58
2021/03/02 00:30:50;;;;;;;;;15.75;14.50;;;;;2.72;80.90;102843.53;3725447;37;20595;-58
2021/03/02 00:33:19;;;;;;;;;13.00;13.00;;;;;2.73;81.13;102844.41;3725112;38;20522;-59
2021/03/02 00:35:45;;;;;;;;;16.00;13.75;;;;;2.65;80.95;102836.78;3725294;37;20550;-58
2021/03/02 00:38:11;;;;;;;;;11.50;11.00;;;;;2.65;81.53;102834.97;3725560;37;20537;-58
2021/03/02 00:40:38;;;;;;;;;18.25;17.00;;;;;2.64;81.42;102830.56;3725413;37;20556;-58
2021/03/02 00:43:04;;;;;;;;;12.25;11.75;;;;;2.55;81.63;102835.53;3725397;37;20525;-58
2021/03/02 00:45:31;;;;;;;;;12.00;12.00;;;;;2.50;81.62;102826.87;3725577;37;20550;-58
2021/03/02 00:47:58;;;;;;;;;16.00;13.00;;;;;2.44;81.74;102821.81;3725413;38;20534;-58
2021/03/02 00:50:27;;;;;;;;;15.25;14.00;;;;;2.50;81.84;102832.22;3725406;38;20546;-57
2021/03/02 00:52:55;;;;;;;;;15.25;12.00;;;;;2.54;81.95;102823.09;3725449;37;20556;-57
2021/03/02 00:55:23;;;;;;;;;17.00;12.50;;;;;2.62;81.99;102820.88;3725422;38;20511;-57
2021/03/02 00:57:49;;;;;;;;;13.75;12.75;;;;;2.62;81.78;102816.41;3725471;37;20512;-58
2021/03/02 01:00:16;;;;;;;;;11.75;11.50;;;;;2.59;81.79;102813.03;3724907;37;20628;-59
2021/03/02 01:02:43;;;;;;;;;14.00;13.50;;;;;2.59;82.02;102813.03;3724906;37;20846;-59
2021/03/02 01:05:11;;;;;;;;;13.50;12.50;;;;;2.55;82.04;102798.97;3725028;38;20502;-58
2021/03/02 01:07:37;;;;;;;;;14.25;12.00;;;;;2.58;82.26;102803.28;3725294;38;20505;-59
2021/03/02 01:10:08;;;;;;;;;15.75;12.75;;;;;2.54;81.93;102791.88;3725320;38;20503;-59
2021/03/02 01:12:34;;;;;;;;;11.75;10.50;;;;;2.64;81.77;102800.28;3725518;37;20536;-58
2021/03/02 01:15:04;;;;;;;;;13.50;10.75;;;;;2.64;81.81;102792.25;3725312;38;20513;-57
2021/03/02 01:17:30;;;;;;;;;12.75;10.75;;;;;2.70;82.15;102786.59;3725425;38;20483;-57
2021/03/02 01:19:57;;;;;;;;;7.00;6.00;;;;;2.72;81.91;102784.72;3725274;38;20494;-57
2021/03/02 01:22:23;;;;;;;;;11.75;11.75;;;;;2.76;82.06;102778.28;3725443;38;20474;-57
2021/03/02 01:24:49;;;;;;;;;11.25;11.25;;;;;2.73;81.99;102777.56;3725291;37;20516;-59
2021/03/02 01:27:16;;;;;;;;;16.50;13.50;;;;;2.69;81.78;102778.66;3725240;38;20500;-57
2021/03/02 01:29:42;;;;;;;;;13.00;11.25;;;;;2.69;82.16;102789.34;3725259;38;20480;-59
2021/03/02 01:32:09;;;;;;;;;12.25;12.00;;;;;2.61;81.84;102779.06;3725429;38;20490;-58
2021/03/02 01:34:36;;;;;;;;;13.50;11.50;;;;;2.52;81.95;102766.19;3725250;37;20466;-58
2021/03/02 01:37:02;;;;;;;;;18.00;14.25;;;;;2.63;82.21;102777.16;3725374;37;20464;-59
2021/03/02 01:39:31;;;;;;;;;15.25;12.75;;;;;2.67;82.08;102778.75;3725293;37;20492;-59
2021/03/02 01:42:00;;;;;;;;;12.75;12.75;;;;;2.65;82.01;102780.62;3724944;37;20464;-58
2021/03/02 01:44:30;;;;;;;;;15.75;13.25;;;;;2.59;82.12;102773.81;3725205;37;20465;-58
2021/03/02 01:46:58;;;;;;;;;14.00;12.50;;;;;2.54;82.32;102772.31;3725301;38;20436;-59
2021/03/02 01:49:26;;;;;;;;;13.50;12.75;;;;;2.54;82.37;102770.50;3725021;37;20490;-58
2021/03/02 01:51:52;;;;;;;;;15.75;12.00;;;;;2.50;82.12;102760.03;3725320;38;20537;-58
2021/03/02 01:54:19;;;;;;;;;13.25;11.50;;;;;2.48;82.56;102772.63;3725321;37;20464;-58
2021/03/02 01:56:45;;;;;;;;;9.75;7.75;;;;;2.48;82.40;102769.94;3725450;37;20444;-60
2021/03/02 01:59:14;;;;;;;;;13.50;11.50;;;;;2.47;82.60;102758.41;3725464;38;20437;-59
2021/03/02 02:01:41;;;;;;;;;12.75;12.50;;;;;2.62;82.57;102764.75;3725213;38;20408;-59
2021/03/02 02:04:23;;;;;;;;;14.00;12.00;;;;;2.65;82.62;102764.59;3725464;38;20424;-61
2021/03/02 02:06:59;;;;;;;;;15.25;14.50;;;;;2.68;82.52;102767.09;3725390;38;20430;-59
2021/03/02 02:09:37;;;;;;;;;16.50;13.75;;;;;2.71;82.47;102763.41;3725355;38;20440;-59
2021/03/02 02:12:16;;;;;;;;;17.50;13.25;;;;;2.69;82.38;102767.97;3725458;37;20408;-59
2021/03/02 02:14:46;;;;;;;;;17.75;16.25;;;;;2.69;82.51;102762.63;3725466;38;20469;-59
2021/03/02 02:17:41;;;;;;;;;17.25;16.00;;;;;2.59;82.42;102757.78;3725310;37;20421;-58
2021/03/02 02:20:11;;;;;;;;;17.50;15.25;;;;;2.67;82.42;102768.03;3725016;37;20408;-58
2021/03/02 02:23:13;;;;;;;;;13.25;13.00;;;;;2.62;82.28;102770.09;3725602;38;20395;-59
2021/03/02 02:26:11;;;;;;;;;15.25;15.25;;;;;2.57;82.42;102766.81;3725242;38;20443;-58
2021/03/02 02:28:40;;;;;;;;;12.00;11.50;;;;;2.56;82.38;102757.06;3725344;37;20394;-58
2021/03/02 02:31:09;;;;;;;;;17.50;15.00;;;;;2.61;82.61;102760.34;3725369;38;20418;-59
2021/03/02 02:33:39;;;;;;;;;16.00;14.25;;;;;2.61;82.78;102755.84;3725352;38;20375;-58
2021/03/02 02:36:09;;;;;;;;;11.75;11.25;;;;;2.61;82.50;102752.31;3725316;38;20502;-59
2021/03/02 02:38:41;;;;;;;;;17.75;12.00;;;;;2.64;82.63;102749.50;3725324;38;20391;-57
2021/03/02 02:41:08;;;;;;;;;15.50;14.00;;;;;2.64;82.32;102749.50;3725517;37;20407;-58
2021/03/02 02:43:39;;;;;;;;;12.75;11.00;;;;;2.67;82.40;102754.69;3725450;37;20388;-58
2021/03/02 02:46:08;;;;;;;;;19.25;16.50;;;;;2.69;82.41;102744.78;3725361;38;20383;-58
2021/03/02 02:48:34;;;;;;;;;17.75;15.50;;;;;2.71;82.48;102755.37;3725276;38;20417;-58
2021/03/02 02:51:01;;;;;;;;;19.50;18.00;;;;;2.72;82.23;102752.63;3725313;37;20387;-58
2021/03/02 02:53:31;;;;;;;;;22.75;21.75;;;;;2.78;82.45;102752.31;3725296;38;20413;-57
2021/03/02 02:56:00;;;;;;;;;21.50;19.75;;;;;2.79;82.24;102750.50;3725327;37;20410;-59
2021/03/02 02:58:33;;;;;;;;;23.25;21.50;;;;;2.69;82.18;102749.25;3725282;37;20402;-58
2021/03/02 03:01:04;;;;;;;;;16.75;16.25;;;;;2.61;82.25;102752.31;3725490;37;20386;-59
2021/03/02 03:03:35;;;;;;;;;22.75;21.00;;;;;2.60;82.30;102745.28;3725545;37;20384;-58
2021/03/02 03:06:08;;;;;;;;;18.00;17.50;;;;;2.62;82.44;102738.87;3725453;38;20394;-58
2021/03/02 03:08:34;;;;;;;;;24.75;21.25;;;;;2.64;82.35;102745.00;3725023;37;20373;-58
2021/03/02 03:11:04;;;;;;;;;17.75;16.25;;;;;2.61;82.30;102746.97;3725446;38;20365;-58
2021/03/02 03:13:37;;;;;;;;;18.50;17.00;;;;;2.62;82.78;102744.22;3724769;38;20389;-58
2021/03/02 03:16:10;;;;;;;;;18.25;17.00;;;;;2.69;82.71;102742.09;3725184;37;20395;-58
2021/03/02 03:18:46;;;;;;;;;11.25;8.75;;;;;2.67;82.59;102738.63;3725126;37;20351;-58
2021/03/02 03:21:13;;;;;;;;;13.25;11.50;;;;;2.76;82.76;102746.19;3725543;38;20318;-59
2021/03/02 03:23:43;;;;;;;;;12.25;12.00;;;;;2.81;82.70;102743.28;3725605;37;20380;-59
2021/03/02 03:26:13;;;;;;;;;17.75;16.00;;;;;2.80;82.19;102738.87;3725528;37;20359;-58
2021/03/02 03:28:40;;;;;;;;;14.25;11.25;;;;;2.83;82.45;102739.56;3725267;38;20332;-58
2021/03/02 03:31:10;;;;;;;;;16.00;14.50;;;;;2.86;82.53;102734.06;3725628;38;20331;-58
2021/03/02 03:33:37;;;;;;;;;16.75;14.00;;;;;2.93;82.40;102727.44;3725444;37;20324;-59
2021/03/02 03:36:05;;;;;;;;;15.00;13.50;;;;;3.04;82.28;102737.59;3725450;37;20342;-58
2021/03/02 03:38:31;;;;;;;;;17.50;15.25;;;;;2.97;82.14;102741.53;3724932;37;20341;-59
2021/03/02 03:40:58;;;;;;;;;18.25;16.00;;;;;3.01;81.91;102740.44;3725474;38;20308;-57
2021/03/02 03:43:24;;;;;;;;;16.75;16.75;;;;;3.03;81.75;102735.00;3725281;38;20328;-59
2021/03/02 03:45:50;;;;;;;;;16.75;14.25;;;;;3.03;81.70;102735.84;3725372;37;20337;-59
2021/03/02 03:48:16;;;;;;;;;14.75;14.25;;;;;2.95;81.61;102736.25;3725338;37;20316;-58
2021/03/02 03:50:43;;;;;;;;;15.75;13.50;;;;;2.95;81.64;102736.25;3725407;38;20338;-58
2021/03/02 03:53:14;;;;;;;;;16.00;14.00;;;;;2.88;81.37;102731.31;3725444;38;20283;-58
2021/03/02 03:55:43;;;;;;;;;18.75;17.25;;;;;2.88;81.62;102737.53;3725470;37;20289;-59
2021/03/02 03:58:15;;;;;;;;;18.75;16.75;;;;;2.87;81.98;102729.59;3725429;37;20297;-59
2021/03/02 04:00:43;;;;;;;;;16.50;14.00;;;;;2.88;81.98;102734.84;3725098;38;20304;-59
2021/03/02 04:03:11;;;;;;;;;17.50;15.00;;;;;2.96;81.67;102735.31;3725091;37;20270;-59
2021/03/02 04:05:38;;;;;;;;;19.00;18.00;;;;;2.98;81.58;102736.09;3725467;37;20312;-59
2021/03/02 04:08:06;;;;;;;;;21.50;19.50;;;;;2.99;81.82;102734.28;3725538;38;20293;-58
2021/03/02 04:10:32;;;;;;;;;19.75;18.25;;;;;2.95;81.70;102720.22;3725428;38;20302;-58
2021/03/02 04:13:08;;;;;;;;;28.00;21.50;;;;;3.03;81.88;102729.66;3725184;37;20288;-58
2021/03/02 04:15:34;;;;;;;;;30.25;25.50;;;;;3.08;81.88;102725.78;3725384;38;20305;-58
2021/03/02 04:18:00;;;;;;;;;38.25;34.00;;;;;3.16;81.68;102726.19;3725412;37;20266;-58
2021/03/02 04:20:26;;;;;;;;;39.00;35.00;;;;;3.16;81.56;102711.97;3725410;38;20299;-59
2021/03/02 04:22:56;;;;;;;;;30.25;29.00;;;;;3.14;81.76;102717.38;3725461;37;20260;-58
2021/03/02 04:25:22;;;;;;;;;37.25;31.75;;;;;3.15;81.69;102715.59;3725295;37;20271;-59
2021/03/02 04:27:49;;;;;;;;;34.25;28.00;;;;;3.19;81.28;102722.50;3725375;38;20261;-58
2021/03/02 04:30:24;;;;;;;;;31.75;25.75;;;;;3.20;81.39;102717.06;3725571;37;20251;-58
2021/03/02 04:32:50;;;;;;;;;37.50;35.00;;;;;3.22;81.42;102714.31;3725519;37;20249;-59
2021/03/02 04:35:18;;;;;;;;;44.75;38.75;;;;;3.29;81.59;102713.88;3725481;37;20324;-58
2021/03/02 04:37:46;;;;;;;;;39.00;34.25;;;;;3.27;81.17;102713.09;3725219;37;20322;-58
2021/03/02 04:40:14;;;;;;;;;37.50;33.00;;;;;3.16;81.01;102709.28;3725517;38;20265;-59
2021/03/02 04:42:41;;;;;;;;;34.50;30.00;;;;;2.98;80.99;102701.31;3725615;38;20248;-58
2021/03/02 04:45:12;;;;;;;;;28.75;25.75;;;;;2.98;81.53;102703.12;3725486;37;20242;-58
2021/03/02 04:47:42;;;;;;;;;29.25;27.00;;;;;3.00;81.65;102703.91;3725476;38;20265;-59
2021/03/02 04:50:10;;;;;;;;;36.75;31.50;;;;;3.02;81.59;102695.81;3725342;37;20260;-57
2021/03/02 04:52:37;;;;;;;;;27.00;25.25;;;;;3.05;81.67;102685.81;3725511;37;20245;-59
2021/03/02 04:55:06;;;;;;;;;33.25;28.75;;;;;2.97;81.07;102688.91;3725531;38;20259;-57
2021/03/02 04:57:33;;;;;;;;;34.50;31.25;;;;;2.85;81.12;102691.37;3725189;37;20231;-58
2021/03/02 05:00:10;;;;;;;;;39.50;28.00;;;;;2.72;80.86;102691.13;3725301;37;20247;-58
2021/03/02 05:02:42;;;;;;;;;23.25;22.50;;;;;2.72;81.20;102693.81;3725212;38;20254;-59
2021/03/02 05:05:09;;;;;;;;;36.00;29.00;;;;;2.65;81.29;102693.28;3725574;38;20236;-59
2021/03/02 05:07:35;;;;;;;;;52.00;38.50;;;;;2.63;81.16;102688.94;3725628;38;20266;-59
2021/03/02 05:10:02;;;;;;;;;63.75;48.00;;;;;2.53;81.18;102690.41;3725566;38;20273;-59
2021/03/02 05:12:28;;;;;;;;;58.00;47.00;;;;;2.45;81.31;102696.12;3725555;38;20290;-58
2021/03/02 05:14:55;;;;;;;;;59.50;43.50;;;;;2.30;81.05;102691.56;3725615;38;20272;-59
2021/03/02 05:17:21;;;;;;;;;56.75;45.25;;;;;2.26;81.08;102690.87;3725647;38;20252;-59
2021/03/02 05:19:47;;;;;;;;;61.00;48.25;;;;;2.24;81.63;102687.41;3725616;38;20253;-59
2021/03/02 05:22:13;;;;;;;;;65.00;50.00;;;;;2.23;81.56;102691.00;3725577;37;20274;-59
2021/03/02 05:24:42;;;;;;;;;63.50;47.50;;;;;2.17;81.49;102688.66;3725733;38;20264;-59
2021/03/02 05:27:08;;;;;;;;;57.75;45.00;;;;;2.15;81.78;102690.53;3725579;38;20244;-61
2021/03/02 05:29:34;;;;;;;;;56.75;43.50;;;;;2.10;81.50;102689.91;3725534;37;20249;-58
2021/03/02 05:32:01;;;;;;;;;67.50;49.25;;;;;1.99;81.56;102679.78;3725579;37;20264;-62
2021/03/02 05:34:27;;;;;;;;;70.25;52.00;;;;;1.98;81.77;102677.19;3726114;38;20247;-61
2021/03/02 05:36:53;;;;;;;;;66.00;50.75;;;;;2.03;81.84;102677.81;3725698;37;20250;-60
2021/03/02 05:39:19;;;;;;;;;68.25;50.75;;;;;2.12;81.83;102687.16;3725894;37;20246;-59
2021/03/02 05:41:46;;;;;;;;;65.50;49.75;;;;;2.20;81.82;102692.97;3725281;38;20257;-59
2021/03/02 05:44:20;;;;;;;;;76.50;54.00;;;;;2.23;81.95;102687.47;3725649;37;20230;-59
2021/03/02 05:46:47;;;;;;;;;68.25;52.00;;;;;2.25;81.95;102683.78;3725565;37;20246;-59
2021/03/02 05:49:15;;;;;;;;;52.50;40.75;;;;;2.28;81.80;102680.09;3725934;38;20198;-58
2021/03/02 05:51:48;;;;;;;;;51.00;41.00;;;;;2.38;82.06;102677.81;3726165;37;20211;-59
2021/03/02 05:54:17;;;;;;;;;28.75;20.75;;;;;2.48;81.84;102671.94;3725672;38;20218;-60
2021/03/02 05:56:45;;;;;;;;;25.50;23.25;;;;;2.64;82.05;102685.34;3725732;37;20139;-58
2021/03/02 05:59:11;;;;;;;;;32.25;28.00;;;;;2.78;82.15;102684.59;3725803;38;20241;-59
2021/03/02 06:01:37;;;;;;;;;31.00;26.25;;;;;2.76;81.70;102687.37;3725585;38;20136;-59
2021/03/02 06:04:12;;;;;;;;;30.00;26.00;;;;;2.81;81.41;102697.81;3725656;38;20170;-59
2021/03/02 06:06:39;;;;;;;;;27.00;21.25;;;;;2.77;81.42;102699.78;3725939;38;20119;-60
2021/03/02 06:09:05;;;;;;;;;26.25;22.50;;;;;2.76;81.13;102698.06;3727546;37;20133;-64
2021/03/02 06:11:36;;;;;;;;;24.00;21.25;;;;;2.71;80.94;102700.09;3725559;38;20140;-60
2021/03/02 06:14:23;;;;;;;;;24.25;22.25;;;;;2.74;81.32;102691.94;3725522;37;20115;-59
2021/03/02 06:16:51;;;;;;;;;30.75;25.25;;;;;2.74;81.25;102696.41;3725870;37;20137;-59
2021/03/02 06:19:18;;;;;;;;;31.50;24.00;;;;;2.71;80.91;102693.91;3725666;37;20121;-62
2021/03/02 06:21:46;;;;;;;;;25.25;22.00;;;;;2.82;80.90;102699.53;3725665;37;20128;-58
2021/03/02 06:24:12;;;;;;;;;30.50;25.50;;;;;2.92;80.45;102700.78;3725390;38;20110;-57
2021/03/02 06:26:39;;;;;;;;;30.00;25.25;;;;;3.02;80.39;102691.34;3725580;38;20107;-60
2021/03/02 06:29:15;;;;;;;;;28.75;25.50;;;;;3.10;80.12;102685.56;3725597;37;20244;-60
2021/03/02 06:31:46;;;;;;;;;30.75;26.25;;;;;3.14;79.47;102689.78;3725489;37;20099;-58
2021/03/02 06:34:15;;;;;;;;;27.75;23.50;;;;;3.11;79.20;102689.97;3725567;37;20124;-59
2021/03/02 06:36:59;;;;;;;;;39.50;30.25;;;;;3.23;79.34;102676.75;3725654;38;20104;-60
2021/03/02 06:39:42;;;;;;;;;31.50;26.50;;;;;3.24;78.82;102678.50;3725954;38;20098;-59
2021/03/02 06:42:19;;;;;;;;;32.25;31.00;;;;;3.25;78.95;102674.00;3725569;37;20073;-56
2021/03/02 06:44:48;;;;;;;;;30.50;29.00;;;;;3.25;78.27;102676.69;3725529;37;20069;-59
2021/03/02 06:47:38;;;;;;;;;36.00;32.50;;;;;3.38;78.49;102669.69;3725274;37;20109;-58
2021/03/02 06:50:23;;;;;;;;;36.25;33.25;;;;;3.53;78.46;102676.88;3725513;37;20073;-59
2021/03/02 06:52:49;;;;;;;;;36.75;32.00;;;;;3.52;77.49;102671.59;3725223;37;20102;-55
2021/03/02 06:55:27;;;;;;;;;33.25;32.50;;;;;3.52;77.42;102667.13;3725511;38;20069;-57
2021/03/02 06:58:15;;;;;;;;;32.75;31.25;;;;;3.44;77.12;102664.00;3725551;38;20060;-57
2021/03/02 07:00:56;;;;;;;;;34.00;28.00;;;;;3.46;77.15;102653.22;3725244;37;20097;-57
2021/03/02 07:03:27;;;;;;;;;36.25;33.25;;;;;3.44;76.80;102644.41;3725499;38;20089;-59
2021/03/02 07:06:11;;;;;;;;;46.75;40.25;;;;;3.56;76.72;102646.38;3725642;38;20098;-58
2021/03/02 07:08:37;;;;;;;;;47.00;36.75;;;;;3.86;77.10;102658.00;3725625;37;20093;-59
2021/03/02 07:11:04;;;;;;;;;40.75;37.25;;;;;3.84;76.37;102651.00;3725686;37;20098;-59
2021/03/02 07:13:32;;;;;;;;;36.75;35.75;;;;;3.99;76.38;102644.75;3725540;38;20080;-59
2021/03/02 07:15:59;;;;;;;;;46.50;39.00;;;;;3.96;75.93;102645.81;3725408;38;20048;-59
2021/03/02 07:18:28;;;;;;;;;38.75;34.00;;;;;3.86;75.61;102638.38;3725369;37;20076;-60
2021/03/02 07:21:03;;;;;;;;;40.25;31.75;;;;;4.08;75.70;102641.53;3725560;37;20047;-59
2021/03/02 07:23:33;;;;;;;;;38.75;36.00;;;;;4.23;74.95;102634.38;3725274;37;20052;-59
2021/03/02 07:26:02;;;;;;;;;36.50;32.25;;;;;4.05;74.64;102636.37;3725436;38;20036;-59
2021/03/02 07:28:35;;;;;;;;;33.00;29.00;;;;;4.06;74.50;102643.44;3725416;37;20036;-59
2021/03/02 07:31:02;;;;;;;;;34.75;29.50;;;;;4.15;74.50;102625.97;3725054;37;20049;-58
2021/03/02 07:33:30;;;;;;;;;31.00;24.50;;;;;4.25;74.31;102627.97;3725625;37;20025;-62
2021/03/02 07:35:58;;;;;;;;;33.25;30.00;;;;;4.40;74.25;102631.56;3725600;38;20061;-60
2021/03/02 07:38:30;;;;;;;;;36.25;29.75;;;;;4.42;73.45;102620.72;3725470;37;20055;-60
2021/03/02 07:40:57;;;;;;;;;33.50;28.75;;;;;4.43;72.69;102623.31;3725682;38;20024;-60
2021/03/02 07:43:52;;;;;;;;;29.25;24.00;;;;;4.51;71.81;102633.59;3725669;37;20027;-60
2021/03/02 07:46:55;;;;;;;;;19.50;14.00;;;;;4.24;71.51;102587.84;3725571;37;20034;-60
2021/03/02 07:49:29;;;;;;;;;29.00;23.50;;;;;4.58;71.70;102619.72;3725780;37;20056;-60
2021/03/02 07:52:22;;;;;;;;;31.25;23.75;;;;;4.61;70.63;102610.63;3725423;37;20086;-60
2021/03/02 07:55:08;;;;;;;;;24.75;19.75;;;;;4.57;69.75;102615.31;3725774;38;20069;-61
2021/03/02 07:57:35;;;;;;;;;20.00;15.25;;;;;4.71;69.84;102602.81;3725462;37;20053;-62
2021/03/02 08:00:36;;;;;;;;;24.50;18.25;;;;;4.90;69.48;102609.63;3725302;38;20055;-59
2021/03/02 08:03:24;;;;;;;;;17.75;15.00;;;;;4.67;69.31;102599.50;3725616;37;20042;-60
2021/03/02 08:05:55;;;;;;;;;18.50;15.75;;;;;4.64;68.75;102600.56;3725693;37;20046;-58
2021/03/02 08:08:39;;;;;;;;;16.00;13.75;;;;;4.61;68.50;102599.87;3725577;38;20056;-59
2021/03/02 08:11:33;;;;;;;;;19.50;16.00;;;;;4.46;69.06;102590.09;3725413;38;20024;-58
2021/03/02 08:14:22;;;;;;;;;19.00;16.50;;;;;4.66;69.15;102592.41;3725217;37;20047;-56
2021/03/02 08:17:00;;;;;;;;;19.50;15.25;;;;;4.73;68.81;102585.69;3725486;37;20018;-57
2021/03/02 08:19:49;;;;;;;;;19.00;14.25;;;;;4.81;68.24;102582.53;3725155;38;20046;-59
2021/03/02 08:22:44;;;;;;;;;21.50;20.25;;;;;4.93;68.35;102573.69;3725363;37;20008;-58
2021/03/02 08:25:24;;;;;;;;;18.25;16.75;;;;;4.86;68.07;102570.53;3725488;37;20005;-60
2021/03/02 08:27:52;;;;;;;;;16.00;15.00;;;;;4.84;68.15;102567.09;3725380;38;19989;-60
2021/03/02 08:30:25;;;;;;;;;25.50;20.00;;;;;4.90;68.49;102572.06;3725990;37;20002;-60
2021/03/02 08:32:57;;;;;;;;;23.75;19.00;;;;;4.88;67.48;102562.41;3725864;37;19989;-58
2021/03/02 08:35:41;;;;;;;;;18.25;16.00;;;;;5.06;67.87;102558.53;3725384;37;20022;-59
2021/03/02 08:38:09;;;;;;;;;20.75;18.00;;;;;5.25;67.74;102551.00;3725706;38;20007;-59
2021/03/02 08:40:48;;;;;;;;;22.00;18.75;;;;;5.55;66.83;102548.09;3725762;37;20007;-58
2021/03/02 08:43:26;;;;;;;;;21.75;19.75;;;;;5.77;65.61;102544.81;3723484;38;19986;-61
2021/03/02 08:45:57;;;;;;;;;21.00;18.50;;;;;5.78;65.06;102541.16;3722444;38;19985;-59
2021/03/02 08:48:29;;;;;;;;;18.75;15.75;;;;;5.52;64.29;102534.03;3725508;37;19889;-58
2021/03/02 08:51:04;;;;;;;;;24.00;22.75;;;;;5.35;64.82;102543.19;3725652;38;19930;-58
2021/03/02 08:53:40;;;;;;;;;25.25;20.75;;;;;5.44;65.61;102539.91;3725635;38;19926;-58
2021/03/02 08:56:21;;;;;;;;;15.50;12.00;;;;;5.40;65.19;102533.00;3726214;38;19908;-59
2021/03/02 08:59:07;;;;;;;;;22.75;18.75;;;;;5.40;65.47;102533.00;3725731;37;19877;-59
2021/03/02 09:01:36;;;;;;;;;17.75;15.00;;;;;5.57;65.83;102526.53;3725542;38;20018;-57
2021/03/02 09:04:16;;;;;;;;;22.00;19.50;;;;;5.50;65.56;102522.53;3725458;38;19895;-59
2021/03/02 09:06:44;;;;;;;;;20.00;19.75;;;;;5.71;65.35;102526.47;3725594;38;19906;-59
2021/03/02 09:09:13;;;;;;;;;22.00;19.50;;;;;5.83;64.71;102522.03;3725296;37;19888;-58
2021/03/02 09:11:51;;;;;;;;;20.00;18.75;;;;;6.03;64.24;102524.25;3725434;38;19895;-58
2021/03/02 09:14:37;;;;;;;;;24.50;20.00;;;;;6.24;64.15;102513.81;3725650;38;19859;-58
2021/03/02 09:17:07;;;;;;;;;20.00;17.50;;;;;6.06;63.54;102515.13;3725504;37;19886;-58
2021/03/02 09:19:52;;;;;;;;;20.25;20.00;;;;;6.18;63.69;102506.22;3725350;38;19880;-58
2021/03/02 09:22:21;;;;;;;;;24.00;21.00;;;;;6.22;63.94;102502.34;3725449;38;19884;-57
2021/03/02 09:24:57;;;;;;;;;24.00;17.50;;;;;5.91;63.97;102500.91;3725407;37;20125;-58
2021/03/02 09:27:37;;;;;;;;;23.50;19.00;;;;;6.18;64.49;102514.28;3725384;37;19856;-58
2021/03/02 09:30:09;;;;;;;;;27.50;23.25;;;;;6.20;63.89;102504.28;3725429;37;19855;-58
2021/03/02 09:32:36;;;;;;;;;24.00;18.75;;;;;6.16;62.65;102519.75;3725597;37;19860;-58
2021/03/02 09:35:08;;;;;;;;;28.00;24.00;;;;;6.16;63.09;102503.63;3725550;37;19862;-60
2021/03/02 09:37:38;;;;;;;;;25.50;22.50;;;;;6.27;62.88;102492.94;3725637;38;19852;-58
2021/03/02 09:40:13;;;;;;;;;29.50;23.75;;;;;6.41;62.79;102502.72;3725298;37;19826;-58
2021/03/02 09:42:42;;;;;;;;;28.00;24.25;;;;;6.25;62.85;102497.56;3725721;38;19840;-59
2021/03/02 09:45:14;;;;;;;;;20.25;20.00;;;;;6.51;62.49;102489.50;3725574;37;19818;-57
2021/03/02 09:47:43;;;;;;;;;27.50;19.50;;;;;6.78;62.39;102479.41;3725559;38;19817;-58
2021/03/02 09:50:20;;;;;;;;;27.50;24.00;;;;;6.82;61.04;102475.50;3725469;37;19847;-58
2021/03/02 09:52:49;;;;;;;;;21.75;17.75;;;;;6.77;60.08;102466.06;3725374;37;19828;-59
2021/03/02 09:55:23;;;;;;;;;19.00;17.00;;;;;6.83;59.49;102452.16;3725556;38;19950;-61
2021/03/02 09:57:58;;;;;;;;;24.75;23.50;;;;;6.84;59.48;102465.50;3725636;38;19819;-58
2021/03/02 10:00:32;;;;;;;;;17.50;16.00;;;;;6.90;59.02;102469.56;3725446;38;19805;-59
2021/03/02 10:03:11;;;;;;;;;22.50;18.50;;;;;7.00;59.76;102448.22;3725751;37;19819;-58
2021/03/02 10:05:46;;;;;;;;;13.00;11.00;;;;;6.97;59.31;102452.84;3726137;37;19800;-58
2021/03/02 10:08:27;;;;;;;;;20.25;18.50;;;;;7.05;58.70;102456.81;3725719;38;19805;-60
2021/03/02 10:11:30;;;;;;;;;17.25;16.25;;;;;7.28;58.57;102445.16;3725407;37;19811;-57
2021/03/02 10:14:01;;;;;;;;;22.25;19.75;;;;;7.27;58.96;102440.78;3725576;37;19810;-58
2021/03/02 10:16:38;;;;;;;;;22.75;19.00;;;;;7.51;57.54;102436.19;3725494;37;19799;-59
2021/03/02 10:19:14;;;;;;;;;21.50;18.00;;;;;7.61;56.81;102426.41;3725550;37;19776;-58
2021/03/02 10:21:53;;;;;;;;;21.50;18.00;;;;;7.64;56.50;102430.72;3725419;37;19791;-61
2021/03/02 10:24:38;;;;;;;;;15.75;13.25;;;;;7.46;57.47;102424.03;3725473;38;19781;-59
2021/03/02 10:27:18;;;;;;;;;19.00;18.00;;;;;7.63;56.43;102420.91;3725553;37;19784;-58
2021/03/02 10:29:46;;;;;;;;;18.00;17.25;;;;;7.79;55.51;102405.25;3725543;38;19797;-59
2021/03/02 10:32:14;;;;;;;;;15.75;15.25;;;;;7.90;55.28;102399.00;3725600;37;19793;-60
2021/03/02 10:34:41;;;;;;;;;19.50;17.25;;;;;8.04;54.38;102393.38;3725501;37;19766;-59
2021/03/02 10:37:09;;;;;;;;;18.50;16.50;;;;;7.87;56.23;102391.16;3725561;38;19780;-60
2021/03/02 10:39:42;;;;;;;;;16.50;14.00;;;;;7.91;55.11;102395.31;3725614;38;19749;-59
2021/03/02 10:42:13;;;;;;;;;18.00;17.00;;;;;8.15;55.21;102385.28;3725895;38;19744;-61
2021/03/02 10:44:39;;;;;;;;;19.25;17.50;;;;;8.09;54.25;102374.12;3725534;37;19748;-60
2021/03/02 10:47:08;;;;;;;;;15.25;14.00;;;;;8.07;54.87;102355.37;3725546;37;19767;-58
2021/03/02 10:49:35;;;;;;;;;24.50;21.00;;;;;8.18;54.30;102358.06;3725517;37;19796;-58
2021/03/02 10:52:02;;;;;;;;;14.50;13.25;;;;;8.24;54.23;102348.63;3725560;37;19780;-59
2021/03/02 10:54:29;;;;;;;;;16.25;15.25;;;;;8.33;53.45;102347.03;3725517;37;19770;-58
2021/03/02 10:56:56;;;;;;;;;13.75;12.75;;;;;8.49;54.29;102344.78;3725732;38;19772;-61
2021/03/02 10:59:33;;;;;;;;;17.25;13.25;;;;;8.12;54.20;102334.28;3726038;38;19731;-60
2021/03/02 11:01:59;;;;;;;;;15.25;12.75;;;;;8.16;54.84;102332.22;3725955;37;19781;-59
2021/03/02 11:04:26;;;;;;;;;17.00;15.25;;;;;8.53;54.17;102330.06;3725971;37;19750;-60
2021/03/02 11:06:52;;;;;;;;;20.50;18.25;;;;;8.77;52.92;102319.06;3726251;37;19740;-63
2021/03/02 11:09:18;;;;;;;;;16.50;15.00;;;;;8.70;53.66;102334.06;3726197;37;19756;-58
2021/03/02 11:11:44;;;;;;;;;19.00;15.25;;;;;8.75;54.19;102319.19;3726446;37;19768;-59
2021/03/02 11:14:11;;;;;;;;;13.75;12.25;;;;;8.92;51.96;102324.00;3725953;37;19737;-58
2021/03/02 11:16:37;;;;;;;;;19.75;15.25;;;;;8.96;50.85;102311.97;3726958;37;19743;-59
2021/03/02 11:19:04;;;;;;;;;13.25;10.75;;;;;8.90;51.29;102304.37;3726628;38;19734;-57
2021/03/02 11:21:30;;;;;;;;;18.00;16.00;;;;;9.14;51.37;102311.37;3725743;37;19687;-58
2021/03/02 11:23:56;;;;;;;;;21.00;18.50;;;;;9.34;51.10;102299.72;3725866;38;19716;-57
2021/03/02 11:26:22;;;;;;;;;16.75;14.75;;;;;9.38;51.25;102298.44;3726425;38;19743;-61
2021/03/02 11:28:49;;;;;;;;;18.00;14.75;;;;;9.33;50.61;102294.44;3727109;37;19713;-58
2021/03/02 11:31:15;;;;;;;;;10.25;9.25;;;;;9.39;51.04;102302.00;3725981;38;19720;-59
2021/03/02 11:33:41;;;;;;;;;18.50;12.50;;;;;9.47;49.74;102316.56;3725695;38;19717;-58
2021/03/02 11:36:08;;;;;;;;;15.25;14.00;;;;;9.71;50.66;102291.94;3725872;37;19712;-58